createdAt,value
2023-12-16T00:01:24.327Z,7.80
2023-12-16T00:03:51.791Z,7.80
2023-12-16T00:06:21.901Z,7.80
2023-12-16T00:08:49.677Z,7.80
2023-12-16T00:11:17.043Z,7.80
2023-12-16T00:13:44.577Z,7.80
2023-12-16T00:16:12.231Z,7.80
2023-12-16T00:18:39.664Z,7.80
2023-12-16T00:21:08.736Z,7.80
2023-12-16T00:23:35.829Z,7.80
2023-12-16T00:26:03.320Z,7.80
2023-12-16T00:28:30.545Z,7.80
2023-12-16T00:30:58.558Z,7.70
2023-12-16T00:33:25.796Z,7.80
2023-12-16T00:35:52.982Z,7.80
2023-12-16T00:38:21.365Z,7.80
2023-12-16T00:40:48.458Z,7.80
2023-12-16T00:43:15.798Z,7.70
2023-12-16T00:45:42.889Z,7.70
2023-12-16T00:48:10.098Z,7.70
2023-12-16T00:50:39.433Z,7.70
2023-12-16T00:53:06.664Z,7.70
2023-12-16T00:55:33.722Z,7.70
2023-12-16T00:58:00.795Z,7.70
2023-12-16T01:00:27.859Z,7.70
2023-12-16T01:02:54.978Z,7.70
2023-12-16T01:05:22.209Z,7.70
2023-12-16T01:07:49.272Z,7.70
2023-12-16T01:10:16.556Z,7.70
2023-12-16T01:12:43.803Z,7.70
2023-12-16T01:15:11.396Z,7.70
2023-12-16T01:17:38.898Z,7.70
2023-12-16T01:20:07.438Z,7.70
2023-12-16T01:22:34.613Z,7.70
2023-12-16T01:25:01.696Z,7.70
2023-12-16T01:27:28.819Z,7.70
2023-12-16T01:29:58.926Z,7.60
2023-12-16T01:32:25.947Z,7.60
2023-12-16T01:34:52.998Z,7.70
2023-12-16T01:37:20.083Z,7.70
2023-12-16T01:39:47.131Z,7.70
2023-12-16T01:42:14.341Z,7.70
2023-12-16T01:44:41.342Z,7.70
2023-12-16T01:47:08.955Z,7.70
2023-12-16T01:49:36.238Z,7.70
2023-12-16T01:52:04.219Z,7.70
2023-12-16T01:54:31.614Z,7.70
2023-12-16T01:57:00.825Z,7.70
2023-12-16T01:59:28.393Z,7.70
2023-12-16T02:01:56.834Z,7.70
2023-12-16T02:04:24.242Z,7.70
2023-12-16T02:06:52.079Z,7.70
2023-12-16T02:09:20.968Z,7.70
2023-12-16T02:11:48.332Z,7.60
2023-12-16T02:14:15.506Z,7.70
2023-12-16T02:16:43.453Z,7.60
2023-12-16T02:19:16.257Z,7.70
2023-12-16T02:21:43.415Z,7.70
2023-12-16T02:24:10.483Z,7.60
2023-12-16T02:26:37.533Z,7.60
2023-12-16T02:29:04.611Z,7.60
2023-12-16T02:31:32.099Z,7.50
2023-12-16T02:33:59.230Z,7.50
2023-12-16T02:36:26.610Z,7.50
2023-12-16T02:38:53.686Z,7.40
2023-12-16T02:41:22.568Z,7.30
2023-12-16T02:43:49.625Z,7.20
2023-12-16T02:46:16.785Z,7.10
2023-12-16T02:48:43.897Z,7.10
2023-12-16T02:51:21.160Z,7.00
2023-12-16T02:53:48.650Z,6.90
2023-12-16T02:56:15.836Z,6.90
2023-12-16T02:58:43.441Z,6.90
2023-12-16T03:01:10.657Z,6.90
2023-12-16T03:03:39.137Z,6.90
2023-12-16T03:06:10.004Z,6.90
2023-12-16T03:08:37.485Z,6.90
2023-12-16T03:11:05.473Z,6.90
2023-12-16T03:13:32.682Z,6.80
2023-12-16T03:16:00.024Z,6.90
2023-12-16T03:18:27.134Z,6.90
2023-12-16T03:20:54.385Z,6.90
2023-12-16T03:23:22.788Z,6.90
2023-12-16T03:25:52.041Z,6.90
2023-12-16T03:28:19.753Z,6.80
2023-12-16T03:30:47.025Z,6.80
2023-12-16T03:33:14.247Z,6.80
2023-12-16T03:35:41.447Z,6.90
2023-12-16T03:38:08.554Z,6.80
2023-12-16T03:40:36.217Z,6.90
2023-12-16T03:43:03.612Z,6.80
2023-12-16T03:45:30.686Z,6.90
2023-12-16T03:47:57.894Z,6.90
2023-12-16T03:50:25.042Z,6.90
2023-12-16T03:52:52.091Z,7.00
2023-12-16T03:55:19.138Z,7.00
2023-12-16T03:57:46.246Z,7.00
2023-12-16T04:00:14.341Z,7.10
2023-12-16T04:02:41.448Z,7.10
2023-12-16T04:05:09.764Z,7.10
2023-12-16T04:07:37.147Z,7.10
2023-12-16T04:10:05.386Z,7.20
2023-12-16T04:12:33.066Z,7.20
2023-12-16T04:15:00.297Z,7.20
2023-12-16T04:17:27.589Z,7.20
2023-12-16T04:19:56.176Z,7.20
2023-12-16T04:22:23.681Z,7.20
2023-12-16T04:24:52.057Z,7.20
2023-12-16T04:27:19.521Z,7.20
2023-12-16T04:29:46.673Z,7.20
2023-12-16T04:32:13.835Z,7.20
2023-12-16T04:34:40.951Z,7.20
2023-12-16T04:37:08.159Z,7.30
2023-12-16T04:39:35.208Z,7.20
2023-12-16T04:42:02.231Z,7.20
2023-12-16T04:44:29.279Z,7.20
2023-12-16T04:46:56.572Z,7.20
2023-12-16T04:49:23.983Z,7.20
2023-12-16T04:51:51.111Z,7.20
2023-12-16T04:54:18.240Z,7.20
2023-12-16T04:56:45.336Z,7.20
2023-12-16T04:59:12.482Z,7.10
2023-12-16T05:01:39.617Z,7.10
2023-12-16T05:04:07.335Z,7.10
2023-12-16T05:06:34.602Z,7.00
2023-12-16T05:09:01.829Z,7.00
2023-12-16T05:11:28.905Z,6.90
2023-12-16T05:13:55.995Z,7.00
2023-12-16T05:16:25.067Z,6.90
2023-12-16T05:18:52.448Z,6.90
2023-12-16T05:21:19.650Z,6.80
2023-12-16T05:23:46.740Z,6.80
2023-12-16T05:26:13.997Z,6.70
2023-12-16T05:28:41.100Z,6.70
2023-12-16T05:31:08.583Z,6.60
2023-12-16T05:33:35.836Z,6.60
2023-12-16T05:36:03.111Z,6.60
2023-12-16T05:38:30.252Z,6.60
2023-12-16T05:40:57.474Z,6.50
2023-12-16T05:43:24.589Z,6.40
2023-12-16T05:45:51.642Z,6.40
2023-12-16T05:48:18.969Z,6.40
2023-12-16T05:50:46.072Z,6.40
2023-12-16T05:53:14.252Z,6.40
2023-12-16T05:55:41.416Z,6.30
2023-12-16T05:58:08.511Z,6.30
2023-12-16T06:00:35.827Z,6.20
2023-12-16T06:03:03.072Z,6.20
2023-12-16T06:05:30.233Z,6.10
2023-12-16T06:07:57.313Z,6.10
2023-12-16T06:10:24.610Z,6.10
2023-12-16T06:12:51.838Z,6.10
2023-12-16T06:15:18.893Z,6.00
2023-12-16T06:17:46.359Z,6.10
2023-12-16T06:20:13.850Z,6.10
2023-12-16T06:22:41.130Z,6.10
2023-12-16T06:25:08.825Z,6.00
2023-12-16T06:27:35.998Z,6.00
2023-12-16T06:30:03.583Z,6.00
2023-12-16T06:32:30.769Z,6.00
2023-12-16T06:34:58.074Z,5.90
2023-12-16T06:37:25.142Z,5.90
2023-12-16T06:39:52.179Z,5.90
2023-12-16T06:42:19.365Z,5.80
2023-12-16T06:44:46.516Z,5.90
2023-12-16T06:47:13.605Z,5.80
2023-12-16T06:49:40.626Z,5.80
2023-12-16T06:52:07.808Z,5.80
2023-12-16T06:54:34.925Z,5.80
2023-12-16T06:57:02.045Z,5.70
2023-12-16T06:59:29.189Z,5.80
2023-12-16T07:01:56.484Z,5.80
2023-12-16T07:04:25.468Z,5.80
2023-12-16T07:06:52.611Z,5.80
2023-12-16T07:09:19.691Z,5.80
2023-12-16T07:11:46.803Z,5.70
2023-12-16T07:14:13.951Z,5.80
2023-12-16T07:16:40.986Z,5.80
2023-12-16T07:19:09.025Z,5.80
2023-12-16T07:21:36.138Z,5.80
2023-12-16T07:24:03.389Z,5.80
2023-12-16T07:26:30.490Z,5.70
2023-12-16T07:28:57.776Z,5.80
2023-12-16T07:31:25.176Z,5.80
2023-12-16T07:33:52.756Z,5.80
2023-12-16T07:36:20.329Z,5.80
2023-12-16T07:38:47.451Z,5.80
2023-12-16T07:41:14.754Z,5.80
2023-12-16T07:43:42.234Z,5.80
2023-12-16T07:46:09.705Z,5.80
2023-12-16T07:48:36.887Z,5.80
2023-12-16T07:51:04.314Z,5.80
2023-12-16T07:53:31.569Z,5.80
2023-12-16T07:55:58.712Z,5.80
2023-12-16T07:58:25.779Z,5.80
2023-12-16T08:00:53.160Z,5.80
2023-12-16T08:03:20.281Z,5.90
2023-12-16T08:05:47.500Z,5.90
2023-12-16T08:08:14.705Z,5.90
2023-12-16T08:10:42.009Z,6.00
2023-12-16T08:13:09.309Z,5.90
2023-12-16T08:15:36.576Z,6.00
2023-12-16T08:18:03.826Z,5.90
2023-12-16T08:20:31.072Z,6.00
2023-12-16T08:22:58.151Z,6.00
2023-12-16T08:25:25.242Z,6.10
2023-12-16T08:27:52.319Z,6.70
2023-12-16T08:30:19.633Z,6.30
2023-12-16T08:32:46.749Z,6.20
2023-12-16T08:35:15.758Z,6.20
2023-12-16T08:37:43.013Z,6.20
2023-12-16T08:40:11.909Z,6.30
2023-12-16T08:42:44.008Z,6.40
2023-12-16T08:45:12.029Z,6.50
2023-12-16T08:47:39.431Z,6.60
2023-12-16T08:50:09.182Z,6.70
2023-12-16T08:52:36.867Z,6.80
2023-12-16T08:55:08.088Z,6.90
2023-12-16T08:57:35.168Z,6.90
2023-12-16T09:00:02.362Z,7.00
2023-12-16T09:02:30.131Z,7.00
2023-12-16T09:04:57.226Z,7.10
2023-12-16T09:07:24.560Z,7.20
2023-12-16T09:09:51.694Z,7.20
2023-12-16T09:12:19.481Z,7.20
2023-12-16T09:14:46.777Z,7.30
2023-12-16T09:17:14.102Z,7.40
2023-12-16T09:19:41.258Z,7.40
2023-12-16T09:22:08.577Z,7.50
2023-12-16T09:24:35.815Z,7.50
2023-12-16T09:27:03.223Z,7.60
2023-12-16T09:29:30.374Z,7.70
2023-12-16T09:31:57.949Z,7.70
2023-12-16T09:34:25.036Z,7.80
2023-12-16T09:36:52.139Z,7.90
2023-12-16T09:39:19.228Z,7.90
2023-12-16T09:41:47.816Z,8.00
2023-12-16T09:44:20.468Z,8.10
2023-12-16T09:46:49.059Z,8.10
2023-12-16T09:49:17.643Z,8.20
2023-12-16T09:51:45.666Z,8.20
2023-12-16T09:54:13.495Z,8.30
2023-12-16T09:56:41.091Z,8.30
2023-12-16T09:59:09.313Z,8.40
2023-12-16T10:01:36.606Z,8.40
2023-12-16T10:04:07.488Z,8.50
2023-12-16T10:06:35.209Z,8.50
2023-12-16T10:09:02.295Z,8.60
2023-12-16T10:11:30.170Z,8.70
2023-12-16T10:14:01.421Z,8.70
2023-12-16T10:16:29.210Z,8.80
2023-12-16T10:18:59.464Z,8.80
2023-12-16T10:21:34.882Z,8.90
2023-12-16T10:24:03.637Z,9.00
2023-12-16T10:26:33.210Z,8.90
2023-12-16T10:29:05.607Z,8.90
2023-12-16T10:31:34.355Z,9.00
2023-12-16T10:34:02.849Z,9.00
2023-12-16T10:36:31.775Z,9.10
2023-12-16T10:38:59.783Z,9.10
2023-12-16T10:41:27.139Z,9.10
2023-12-16T10:43:57.409Z,9.20
2023-12-16T10:46:35.349Z,9.10
2023-12-16T10:49:08.419Z,9.10
2023-12-16T10:51:43.428Z,9.10
2023-12-16T10:54:34.675Z,9.10
2023-12-16T10:57:36.421Z,9.20
2023-12-16T11:00:07.268Z,9.20
2023-12-16T11:03:18.294Z,9.20
2023-12-16T11:05:52.275Z,9.20
2023-12-16T11:08:25.165Z,9.30
2023-12-16T11:10:56.503Z,9.20
2023-12-16T11:13:24.785Z,9.30
2023-12-16T11:16:00.108Z,9.30
2023-12-16T11:18:31.979Z,9.30
2023-12-16T11:21:06.403Z,9.30
2023-12-16T11:23:35.343Z,9.40
2023-12-16T11:26:06.374Z,9.50
2023-12-16T11:28:34.230Z,9.40
2023-12-16T11:31:01.585Z,9.40
2023-12-16T11:33:49.265Z,9.40
2023-12-16T11:36:17.372Z,9.40
2023-12-16T11:38:48.428Z,9.40
2023-12-16T11:41:37.907Z,9.40
2023-12-16T11:44:07.255Z,9.40
2023-12-16T11:46:44.472Z,9.40
2023-12-16T11:49:16.170Z,9.40
2023-12-16T11:51:45.326Z,9.40
2023-12-16T11:54:16.860Z,9.40
2023-12-16T11:56:44.021Z,9.40
2023-12-16T11:59:12.654Z,9.40
2023-12-16T12:01:40.500Z,9.50
2023-12-16T12:04:09.096Z,9.40
2023-12-16T12:06:38.177Z,9.50
2023-12-16T12:09:06.870Z,9.40
2023-12-16T12:11:34.065Z,9.40
2023-12-16T12:14:03.993Z,9.40
2023-12-16T12:16:31.262Z,9.40
2023-12-16T12:18:58.908Z,9.40
2023-12-16T12:21:26.856Z,9.40
2023-12-16T12:23:54.435Z,9.40
2023-12-16T12:26:25.087Z,9.50
2023-12-16T12:29:02.350Z,9.50
2023-12-16T12:31:31.385Z,9.40
2023-12-16T12:33:58.935Z,9.50
2023-12-16T12:36:31.726Z,9.40
2023-12-16T12:38:59.791Z,9.50
2023-12-16T12:41:27.413Z,9.50
2023-12-16T12:43:54.817Z,9.50
2023-12-16T12:46:23.240Z,9.50
2023-12-16T12:48:57.892Z,9.50
2023-12-16T12:51:27.423Z,9.50
2023-12-16T12:54:01.991Z,9.50
2023-12-16T12:56:30.356Z,9.50
2023-12-16T12:58:59.420Z,9.50
2023-12-16T13:01:29.338Z,9.40
2023-12-16T13:03:56.878Z,9.50
2023-12-16T13:06:24.414Z,9.40
2023-12-16T13:08:52.925Z,9.40
2023-12-16T13:11:20.175Z,9.40
2023-12-16T13:13:49.926Z,9.40
2023-12-16T13:16:17.388Z,9.30
2023-12-16T13:18:45.633Z,9.40
2023-12-16T13:21:14.774Z,9.40
2023-12-16T13:23:44.739Z,9.30
2023-12-16T13:26:15.878Z,9.30
2023-12-16T13:28:43.470Z,9.40
2023-12-16T13:31:11.898Z,9.40
2023-12-16T13:33:41.962Z,9.30
2023-12-16T13:36:32.990Z,9.30
2023-12-16T13:38:58.608Z,9.30
2023-12-16T13:41:25.950Z,9.30
2023-12-16T13:43:53.191Z,9.30
2023-12-16T13:46:20.431Z,9.30
2023-12-16T13:48:47.987Z,9.30
2023-12-16T13:51:15.206Z,9.30
2023-12-16T13:53:43.996Z,9.30
2023-12-16T13:56:11.310Z,9.30
2023-12-16T13:58:39.948Z,9.40
2023-12-16T14:01:07.206Z,9.40
2023-12-16T14:03:35.021Z,9.30
2023-12-16T14:06:03.809Z,9.30
2023-12-16T14:08:32.581Z,9.30
2023-12-16T14:10:59.823Z,9.30
2023-12-16T14:13:27.071Z,9.30
2023-12-16T14:15:54.264Z,9.30
2023-12-16T14:18:21.763Z,9.30
2023-12-16T14:20:48.952Z,9.30
2023-12-16T14:23:16.321Z,9.30
2023-12-16T14:25:43.475Z,9.30
2023-12-16T14:28:13.164Z,9.30
2023-12-16T14:30:42.911Z,9.30
2023-12-16T14:33:10.883Z,9.20
2023-12-16T14:35:38.777Z,9.30
2023-12-16T14:38:06.535Z,9.30
2023-12-16T14:40:34.028Z,9.30
2023-12-16T14:43:02.351Z,9.30
2023-12-16T14:45:30.024Z,9.30
2023-12-16T14:47:57.550Z,9.30
2023-12-16T14:50:24.863Z,9.20
2023-12-16T14:52:51.915Z,9.20
2023-12-16T14:55:19.560Z,9.20
2023-12-16T14:57:46.907Z,9.20
2023-12-16T15:00:16.436Z,9.20
2023-12-16T15:02:45.230Z,9.20
2023-12-16T15:05:12.444Z,9.20
2023-12-16T15:07:40.344Z,9.20
2023-12-16T15:10:08.394Z,9.10
2023-12-16T15:12:35.637Z,9.20
2023-12-16T15:15:02.928Z,9.20
2023-12-16T15:17:30.217Z,9.20
2023-12-16T15:19:57.581Z,9.20
2023-12-16T15:22:24.963Z,9.20
2023-12-16T15:24:53.175Z,9.20
2023-12-16T15:27:20.583Z,9.10
2023-12-16T15:29:47.891Z,9.10
2023-12-16T15:32:16.791Z,9.20
2023-12-16T15:34:44.798Z,9.10
2023-12-16T15:37:17.559Z,9.10
2023-12-16T15:39:46.269Z,9.20
2023-12-16T15:42:13.575Z,9.10
2023-12-16T15:44:40.793Z,9.10
2023-12-16T15:47:08.017Z,9.10
2023-12-16T15:49:35.523Z,9.10
2023-12-16T15:52:04.649Z,9.10
2023-12-16T15:54:31.840Z,9.10
2023-12-16T15:57:00.646Z,9.10
2023-12-16T15:59:30.857Z,9.10
2023-12-16T16:01:58.011Z,9.10
2023-12-16T16:04:25.156Z,9.10
2023-12-16T16:06:52.330Z,9.10
2023-12-16T16:09:20.405Z,9.10
2023-12-16T16:11:48.632Z,9.10
2023-12-16T16:14:15.905Z,9.00
2023-12-16T16:16:43.162Z,9.10
2023-12-16T16:19:10.495Z,9.10
2023-12-16T16:21:37.796Z,9.10
2023-12-16T16:24:05.180Z,9.10
2023-12-16T16:26:34.334Z,9.10
2023-12-16T16:29:05.496Z,9.10
2023-12-16T16:31:37.142Z,9.10
2023-12-16T16:34:06.817Z,9.10
2023-12-16T16:36:34.515Z,9.10
2023-12-16T16:39:02.077Z,9.10
2023-12-16T16:41:32.001Z,9.10
2023-12-16T16:44:00.941Z,9.10
2023-12-16T16:46:29.491Z,9.10
2023-12-16T16:48:57.124Z,9.10
2023-12-16T16:51:24.476Z,9.10
2023-12-16T16:53:51.755Z,9.10
2023-12-16T16:56:19.931Z,9.10
2023-12-16T16:58:47.162Z,9.10
2023-12-16T17:01:14.532Z,9.10
2023-12-16T17:03:42.521Z,9.10
2023-12-16T17:06:10.291Z,9.10
2023-12-16T17:08:37.790Z,9.10
2023-12-16T17:11:05.791Z,9.10
2023-12-16T17:13:33.072Z,9.10
2023-12-16T17:16:00.316Z,9.10
2023-12-16T17:18:28.345Z,9.10
2023-12-16T17:20:55.723Z,9.10
2023-12-16T17:23:23.433Z,9.10
2023-12-16T17:25:50.577Z,9.10
2023-12-16T17:28:17.743Z,9.10
2023-12-16T17:30:45.725Z,9.10
2023-12-16T17:33:13.070Z,9.10
2023-12-16T17:35:41.476Z,9.20
2023-12-16T17:38:08.884Z,9.10
2023-12-16T17:40:35.953Z,9.20
2023-12-16T17:43:03.151Z,9.10
2023-12-16T17:45:30.270Z,9.10
2023-12-16T17:47:57.559Z,9.10
2023-12-16T17:50:25.403Z,9.20
2023-12-16T17:52:52.527Z,9.20
2023-12-16T17:55:19.848Z,9.20
2023-12-16T17:57:48.840Z,9.20
2023-12-16T18:00:18.014Z,9.20
2023-12-16T18:02:45.198Z,9.20
2023-12-16T18:05:12.555Z,9.20
2023-12-16T18:07:40.110Z,9.20
2023-12-16T18:10:08.016Z,9.20
2023-12-16T18:12:35.200Z,9.20
2023-12-16T18:15:02.730Z,9.30
2023-12-16T18:17:32.814Z,9.20
2023-12-16T18:19:59.907Z,9.30
2023-12-16T18:22:26.957Z,9.30
2023-12-16T18:24:54.173Z,9.30
2023-12-16T18:27:21.247Z,9.30
2023-12-16T18:29:48.617Z,9.30
2023-12-16T18:32:15.975Z,9.30
2023-12-16T18:34:43.438Z,9.30
2023-12-16T18:37:10.619Z,9.30
2023-12-16T18:39:38.582Z,9.30
2023-12-16T18:42:07.548Z,9.30
2023-12-16T18:44:34.964Z,9.30
2023-12-16T18:47:02.214Z,9.30
2023-12-16T18:49:30.754Z,9.30
2023-12-16T18:51:57.942Z,9.30
2023-12-16T18:54:25.072Z,9.30
2023-12-16T18:56:53.471Z,9.30
2023-12-16T18:59:20.678Z,9.30
2023-12-16T19:01:48.316Z,9.30
2023-12-16T19:04:15.598Z,9.30
2023-12-16T19:06:42.925Z,9.30
2023-12-16T19:09:10.377Z,9.30
2023-12-16T19:11:39.528Z,9.30
2023-12-16T19:14:07.302Z,9.30
2023-12-16T19:16:36.945Z,9.30
2023-12-16T19:19:04.492Z,9.30
2023-12-16T19:21:31.650Z,9.30
2023-12-16T19:23:58.886Z,9.30
2023-12-16T19:26:26.094Z,9.30
2023-12-16T19:28:53.261Z,9.30
2023-12-16T19:31:20.457Z,9.30
2023-12-16T19:33:49.673Z,9.20
2023-12-16T19:36:16.975Z,9.30
2023-12-16T19:38:44.320Z,9.30
2023-12-16T19:41:12.186Z,9.30
2023-12-16T19:43:39.316Z,9.30
2023-12-16T19:46:07.141Z,9.30
2023-12-16T19:48:35.444Z,9.20
2023-12-16T19:51:13.678Z,9.30
2023-12-16T19:53:43.024Z,9.30
2023-12-16T19:56:13.864Z,9.30
2023-12-16T19:58:45.031Z,9.30
2023-12-16T20:01:16.060Z,9.20
2023-12-16T20:03:49.877Z,9.30
2023-12-16T20:06:20.081Z,9.20
2023-12-16T20:08:47.685Z,9.30
2023-12-16T20:11:14.950Z,9.20
2023-12-16T20:13:44.649Z,9.20
2023-12-16T20:16:14.735Z,9.20
2023-12-16T20:18:42.186Z,9.30
2023-12-16T20:21:11.874Z,9.20
2023-12-16T20:23:39.230Z,9.20
2023-12-16T20:26:08.508Z,9.20
2023-12-16T20:28:35.767Z,9.30
2023-12-16T20:31:03.430Z,9.20
2023-12-16T20:33:30.817Z,9.30
2023-12-16T20:35:58.292Z,9.30
2023-12-16T20:38:44.424Z,9.20
2023-12-16T20:41:13.475Z,9.20
2023-12-16T20:43:42.367Z,9.20
2023-12-16T20:46:09.675Z,9.20
2023-12-16T20:48:39.931Z,9.20
2023-12-16T20:51:09.606Z,9.20
2023-12-16T20:53:37.980Z,9.20
2023-12-16T20:56:06.166Z,9.20
2023-12-16T20:58:34.964Z,9.20
2023-12-16T21:01:03.126Z,9.20
2023-12-16T21:03:30.703Z,9.20
2023-12-16T21:05:58.156Z,9.20
2023-12-16T21:08:25.401Z,9.20
2023-12-16T21:10:52.729Z,9.20
2023-12-16T21:13:20.883Z,9.20
2023-12-16T21:15:49.561Z,9.20
2023-12-16T21:18:16.891Z,9.30
2023-12-16T21:20:45.982Z,9.30
2023-12-16T21:23:13.778Z,9.30
2023-12-16T21:25:42.251Z,9.30
2023-12-16T21:28:09.430Z,9.30
2023-12-16T21:30:38.035Z,9.30
2023-12-16T21:33:05.471Z,9.30
2023-12-16T21:35:33.063Z,9.30
2023-12-16T21:38:00.642Z,9.30
2023-12-16T21:40:28.182Z,9.30
2023-12-16T21:42:55.899Z,9.30
2023-12-16T21:45:23.164Z,9.30
2023-12-16T21:47:51.466Z,9.30
2023-12-16T21:50:20.087Z,9.30
2023-12-16T21:52:47.321Z,9.30
2023-12-16T21:55:14.468Z,9.30
2023-12-16T21:57:44.125Z,9.30
2023-12-16T22:00:12.159Z,9.30
2023-12-16T22:02:39.469Z,9.30
2023-12-16T22:05:09.429Z,9.20
2023-12-16T22:07:38.702Z,9.30
2023-12-16T22:10:07.194Z,9.30
2023-12-16T22:12:35.491Z,9.30
2023-12-16T22:15:02.941Z,9.30
2023-12-16T22:17:30.166Z,9.30
2023-12-16T22:19:58.249Z,9.30
2023-12-16T22:22:26.926Z,9.30
2023-12-16T22:24:54.074Z,9.20
2023-12-16T22:27:22.922Z,9.20
2023-12-16T22:29:52.626Z,9.20
2023-12-16T22:32:20.117Z,9.20
2023-12-16T22:34:47.334Z,9.20
2023-12-16T22:37:14.541Z,9.20
2023-12-16T22:39:41.919Z,9.20
2023-12-16T22:42:09.182Z,9.20
2023-12-16T22:44:36.772Z,9.20
2023-12-16T22:47:08.192Z,9.20
2023-12-16T22:49:37.900Z,9.30
2023-12-16T22:52:05.642Z,9.30
2023-12-16T22:54:33.527Z,9.20
2023-12-16T22:57:01.031Z,9.20
2023-12-16T22:59:29.224Z,9.30
2023-12-16T23:01:56.559Z,9.30
2023-12-16T23:04:25.279Z,9.20
2023-12-16T23:06:52.434Z,9.20
2023-12-16T23:09:21.236Z,9.20
2023-12-16T23:11:51.562Z,9.20
2023-12-16T23:14:19.731Z,9.30
2023-12-16T23:16:49.889Z,9.30
2023-12-16T23:19:17.213Z,9.30
2023-12-16T23:21:47.331Z,9.20
2023-12-16T23:24:15.645Z,9.20
2023-12-16T23:26:46.264Z,9.30
2023-12-16T23:29:14.288Z,9.20
2023-12-16T23:31:45.279Z,9.20
2023-12-16T23:34:12.722Z,9.20
2023-12-16T23:36:39.979Z,9.30
2023-12-16T23:39:10.406Z,9.20
2023-12-16T23:41:37.589Z,9.30
2023-12-16T23:44:05.914Z,9.30
2023-12-16T23:46:33.149Z,9.20
2023-12-16T23:49:02.268Z,9.20
2023-12-16T23:51:30.585Z,9.30
2023-12-16T23:53:58.032Z,9.30
2023-12-16T23:56:26.781Z,9.30
2023-12-16T23:58:53.933Z,9.30
